Terminal Aerodrome Forecast
Issued by NWS

Home | Current Version | Previous Version | Text Only | Print | Product List | Glossary On
Versions: 1 2 3 4 5 6 7 8 9 10 11 12 13 14 15 16 17 18 19 20
000
FTUS41 KBTV 291120
TAFSLK
TAF
KSLK 291120Z 2912/3012 00000KT 1/4SM FG OVC002
     FM291300 VRB02KT P6SM SKC
     FM291700 22006KT P6SM SCT150
     FM300600 22008KT P6SM BKN100=

USA.gov is the U.S. government's official web portal to all federal, state and local government web resources and services.